createdAt,value
2018-08-09T00:00:08.918Z,8.13
2018-08-09T00:02:36.987Z,8.60
2018-08-09T00:05:05.425Z,8.23
2018-08-09T00:07:33.518Z,8.67
2018-08-09T00:10:01.610Z,8.70
2018-08-09T00:12:29.726Z,8.40
2018-08-09T00:14:57.806Z,9.10
2018-08-09T00:17:25.890Z,8.23
2018-08-09T00:19:53.989Z,8.30
2018-08-09T00:22:22.133Z,8.00
2018-08-09T00:24:50.222Z,8.40
2018-08-09T00:27:24.811Z,8.83
2018-08-09T00:29:52.882Z,9.20
2018-08-09T00:32:20.987Z,8.70
2018-08-09T00:34:49.098Z,8.77
2018-08-09T00:37:17.231Z,8.77
2018-08-09T00:39:45.297Z,8.40
2018-08-09T00:42:13.577Z,9.30
2018-08-09T00:44:41.741Z,9.47
2018-08-09T00:47:10.618Z,9.37
2018-08-09T00:49:38.690Z,8.80
2018-08-09T00:52:06.772Z,9.60
2018-08-09T00:54:34.848Z,9.13
2018-08-09T00:57:02.916Z,9.23
2018-08-09T00:59:30.988Z,9.07
2018-08-09T01:01:59.059Z,9.37
2018-08-09T01:04:27.153Z,8.83
2018-08-09T01:06:55.352Z,9.03
2018-08-09T01:09:23.445Z,9.10
2018-08-09T01:11:51.533Z,9.27
2018-08-09T01:14:19.622Z,9.47
2018-08-09T01:16:47.715Z,9.53
2018-08-09T01:19:15.817Z,9.37
2018-08-09T01:21:43.955Z,9.53
2018-08-09T01:24:12.064Z,9.70
2018-08-09T01:26:40.188Z,9.33
2018-08-09T01:29:08.285Z,9.33
2018-08-09T01:31:37.774Z,9.90
2018-08-09T01:34:07.165Z,10.23
2018-08-09T01:36:35.874Z,9.70
2018-08-09T01:39:07.338Z,9.57
2018-08-09T01:41:35.490Z,9.93
2018-08-09T01:44:04.684Z,10.13
2018-08-09T01:46:33.071Z,10.80
2018-08-09T01:49:01.545Z,10.43
2018-08-09T01:51:30.345Z,11.20
2018-08-09T01:53:58.430Z,10.80
2018-08-09T01:56:26.569Z,12.27
2018-08-09T01:58:55.271Z,12.33
2018-08-09T02:01:23.394Z,11.87
2018-08-09T02:03:51.551Z,12.53
2018-08-09T02:06:20.187Z,13.00
2018-08-09T02:08:48.834Z,12.87
2018-08-09T02:11:16.914Z,15.63
2018-08-09T02:13:45.076Z,17.57
2018-08-09T02:16:13.154Z,18.63
2018-08-09T02:18:41.272Z,17.63
2018-08-09T02:21:09.858Z,18.07
2018-08-09T02:23:38.147Z,16.80
2018-08-09T02:26:06.269Z,17.03
2018-08-09T02:28:34.376Z,16.23
2018-08-09T02:31:02.466Z,16.67
2018-08-09T02:33:30.806Z,17.10
2018-08-09T02:35:58.893Z,16.80
2018-08-09T02:38:26.985Z,16.30
2018-08-09T02:40:55.150Z,16.67
2018-08-09T02:43:23.282Z,16.83
2018-08-09T02:45:51.387Z,16.83
2018-08-09T02:48:19.517Z,16.03
2018-08-09T02:50:47.732Z,15.67
2018-08-09T02:53:15.829Z,15.90
2018-08-09T02:55:43.920Z,16.03
2018-08-09T02:58:12.048Z,15.27
2018-08-09T03:00:40.168Z,16.27
2018-08-09T03:03:08.277Z,16.10
2018-08-09T03:05:36.583Z,15.73
2018-08-09T03:08:04.707Z,16.07
2018-08-09T03:10:32.781Z,15.77
2018-08-09T03:13:00.874Z,15.73
2018-08-09T03:15:28.979Z,15.40
2018-08-09T03:17:57.250Z,15.77
2018-08-09T03:20:25.321Z,15.13
2018-08-09T03:22:53.433Z,14.90
2018-08-09T03:25:21.514Z,15.00
2018-08-09T03:27:49.618Z,15.30
2018-08-09T03:30:17.746Z,14.90
2018-08-09T03:32:45.881Z,16.57
2018-08-09T03:35:13.985Z,14.70
2018-08-09T03:37:42.099Z,15.30
2018-08-09T03:40:10.214Z,14.90
2018-08-09T03:42:38.329Z,14.30
2018-08-09T03:45:06.755Z,15.23
2018-08-09T03:47:34.884Z,14.63
2018-08-09T03:50:03.515Z,14.67
2018-08-09T03:52:31.611Z,13.93
2018-08-09T03:54:59.723Z,20.13
2018-08-09T03:57:27.821Z,17.13
2018-08-09T03:59:55.939Z,14.57
2018-08-09T04:02:24.043Z,14.87
2018-08-09T04:04:52.150Z,14.67
2018-08-09T04:07:20.258Z,14.43
2018-08-09T04:09:48.341Z,14.47
2018-08-09T04:12:16.495Z,13.93
2018-08-09T04:14:44.659Z,14.37
2018-08-09T04:17:20.316Z,14.73
2018-08-09T04:19:49.589Z,19.20
2018-08-09T04:22:17.784Z,15.33
2018-08-09T04:24:46.246Z,16.03
2018-08-09T04:27:14.349Z,15.70
2018-08-09T04:29:42.502Z,15.07
2018-08-09T04:32:10.695Z,14.80
2018-08-09T04:34:38.884Z,15.67
2018-08-09T04:37:07.366Z,15.87
2018-08-09T04:39:35.653Z,15.67
2018-08-09T04:42:04.086Z,16.30
2018-08-09T04:44:32.199Z,15.10
2018-08-09T04:47:00.538Z,15.67
2018-08-09T04:49:28.654Z,15.67
2018-08-09T04:51:57.199Z,16.00
2018-08-09T04:54:25.317Z,16.40
2018-08-09T04:56:53.405Z,15.07
2018-08-09T04:59:21.620Z,15.93
2018-08-09T05:01:49.764Z,16.60
2018-08-09T05:04:17.896Z,15.77
2018-08-09T05:06:46.264Z,15.43
2018-08-09T05:09:14.434Z,16.73
2018-08-09T05:11:42.818Z,17.40
2018-08-09T05:14:10.933Z,18.70
2018-08-09T05:16:39.408Z,16.63
2018-08-09T05:19:07.545Z,15.67
2018-08-09T05:21:35.777Z,15.93
2018-08-09T05:24:03.930Z,14.90
2018-08-09T05:26:32.077Z,15.83
2018-08-09T05:29:00.138Z,15.07
2018-08-09T05:31:28.761Z,15.20
2018-08-09T05:33:56.851Z,15.27
2018-08-09T05:36:24.918Z,14.60
2018-08-09T05:38:53.002Z,14.67
2018-08-09T05:41:21.079Z,15.00
2018-08-09T05:43:49.173Z,13.73
2018-08-09T05:46:17.238Z,16.97
2018-08-09T05:48:46.205Z,16.87
2018-08-09T05:51:14.281Z,15.37
2018-08-09T05:53:42.430Z,15.20
2018-08-09T05:56:10.524Z,13.97
2018-08-09T05:58:38.659Z,14.37
2018-08-09T06:01:06.926Z,14.00
2018-08-09T06:03:35.026Z,13.80
2018-08-09T06:06:03.102Z,14.33
2018-08-09T06:08:31.204Z,13.20
2018-08-09T06:10:59.299Z,13.47
2018-08-09T06:13:27.454Z,14.13
2018-08-09T06:15:56.322Z,13.80
2018-08-09T06:18:24.404Z,14.70
2018-08-09T06:20:52.480Z,14.27
2018-08-09T06:23:20.601Z,13.97
2018-08-09T06:25:48.690Z,14.17
2018-08-09T06:28:16.796Z,13.90
2018-08-09T06:30:45.706Z,13.87
2018-08-09T06:33:13.790Z,13.27
2018-08-09T06:35:41.907Z,13.73
2018-08-09T06:38:10.159Z,14.03
2018-08-09T06:40:38.642Z,13.60
2018-08-09T06:43:06.791Z,13.63
2018-08-09T06:45:34.965Z,13.30
2018-08-09T06:48:03.072Z,13.40
2018-08-09T06:50:31.149Z,13.27
2018-08-09T06:52:59.273Z,13.00
2018-08-09T06:55:27.386Z,14.10
2018-08-09T06:57:55.613Z,13.70
2018-08-09T07:00:23.677Z,13.20
2018-08-09T07:02:51.786Z,13.40
2018-08-09T07:05:19.856Z,14.37
2018-08-09T07:07:47.986Z,12.90
2018-08-09T07:10:16.105Z,13.77
2018-08-09T07:12:44.213Z,13.03
2018-08-09T07:15:13.352Z,14.30
2018-08-09T07:17:42.401Z,14.00
2018-08-09T07:20:10.985Z,13.13
2018-08-09T07:22:40.230Z,13.23
2018-08-09T07:25:08.378Z,13.30
2018-08-09T07:27:36.691Z,13.87
2018-08-09T07:30:06.718Z,12.90
2018-08-09T07:32:35.858Z,12.03
2018-08-09T07:35:03.935Z,12.43
2018-08-09T07:37:32.045Z,12.50
2018-08-09T07:40:00.146Z,12.30
2018-08-09T07:42:28.252Z,12.33
2018-08-09T07:44:56.392Z,12.00
2018-08-09T07:47:24.532Z,11.77
2018-08-09T07:49:52.696Z,12.37
2018-08-09T07:52:22.009Z,12.50
2018-08-09T07:54:50.082Z,11.80
2018-08-09T07:57:18.246Z,11.90
2018-08-09T07:59:46.360Z,11.30
2018-08-09T08:02:14.454Z,12.33
2018-08-09T08:04:42.553Z,12.63
2018-08-09T08:07:10.658Z,12.20
2018-08-09T08:09:38.758Z,12.47
2018-08-09T08:12:06.863Z,12.27
2018-08-09T08:14:34.934Z,12.30
2018-08-09T08:17:03.069Z,12.93
2018-08-09T08:19:31.203Z,12.07
2018-08-09T08:21:59.290Z,13.23
2018-08-09T08:24:27.429Z,11.43
2018-08-09T08:26:55.597Z,12.00
2018-08-09T08:29:23.703Z,11.57
2018-08-09T08:31:52.490Z,11.83
2018-08-09T08:34:20.628Z,14.23
2018-08-09T08:36:48.809Z,12.20
2018-08-09T08:39:16.890Z,13.00
2018-08-09T08:41:45.087Z,11.20
2018-08-09T08:44:13.118Z,11.37
2018-08-09T08:46:41.214Z,11.70
2018-08-09T08:49:09.330Z,11.40
2018-08-09T08:51:37.423Z,11.40
2018-08-09T08:54:05.506Z,11.07
2018-08-09T08:56:33.609Z,10.50
2018-08-09T08:59:01.773Z,11.27
2018-08-09T09:01:29.914Z,10.83
2018-08-09T09:03:58.086Z,11.07
2018-08-09T09:06:26.288Z,10.73
2018-08-09T09:08:54.369Z,10.70
2018-08-09T09:11:22.526Z,10.40
2018-08-09T09:13:50.701Z,10.60
2018-08-09T09:16:18.810Z,10.30
2018-08-09T09:18:46.893Z,10.37
2018-08-09T09:21:14.994Z,9.97
2018-08-09T09:23:43.057Z,9.87
2018-08-09T09:26:11.142Z,9.57
2018-08-09T09:28:39.251Z,10.37
2018-08-09T09:31:07.422Z,10.60
2018-08-09T09:33:35.498Z,10.10
2018-08-09T09:36:03.578Z,9.97
2018-08-09T09:38:31.802Z,9.30
2018-08-09T09:40:59.878Z,8.80
2018-08-09T09:43:27.948Z,9.10
2018-08-09T09:45:56.034Z,8.73
2018-08-09T09:48:24.131Z,8.33
2018-08-09T09:50:52.211Z,9.30
2018-08-09T09:53:20.814Z,9.50
2018-08-09T09:55:48.915Z,9.00
2018-08-09T09:58:17.038Z,8.58
2018-08-09T10:00:50.405Z,8.78
2018-08-09T10:03:18.579Z,8.43
2018-08-09T10:05:46.770Z,8.08
2018-08-09T10:08:14.859Z,8.40
2018-08-09T10:10:42.933Z,7.75
2018-08-09T10:13:11.028Z,8.03
2018-08-09T10:15:39.122Z,7.47
2018-08-09T10:18:07.182Z,7.85
2018-08-09T10:20:35.266Z,7.97
2018-08-09T10:23:03.343Z,7.72
2018-08-09T10:25:31.454Z,8.13
2018-08-09T10:27:59.527Z,7.90
2018-08-09T10:30:27.610Z,7.95
2018-08-09T10:32:55.720Z,7.22
2018-08-09T10:35:23.846Z,7.25
2018-08-09T10:37:52.120Z,7.28
2018-08-09T10:40:20.198Z,8.18
2018-08-09T10:42:48.326Z,8.50
2018-08-09T10:45:16.393Z,8.05
2018-08-09T10:47:44.473Z,7.70
2018-08-09T10:50:12.553Z,7.28
2018-08-09T10:52:40.671Z,7.60
2018-08-09T10:55:08.781Z,7.37
2018-08-09T10:57:36.901Z,7.17
2018-08-09T11:00:08.389Z,6.97
2018-08-09T11:02:36.562Z,6.78
2018-08-09T11:05:04.792Z,6.65
2018-08-09T11:07:32.890Z,6.95
2018-08-09T11:10:01.018Z,6.75
2018-08-09T11:12:29.134Z,7.00
2018-08-09T11:14:58.122Z,6.78
2018-08-09T11:17:26.265Z,6.60
2018-08-09T11:19:54.415Z,5.60
2018-08-09T11:22:22.553Z,5.50
2018-08-09T11:24:50.639Z,6.15
2018-08-09T11:27:18.757Z,5.70
2018-08-09T11:29:46.883Z,6.28
2018-08-09T11:32:15.103Z,5.70
2018-08-09T11:34:43.193Z,5.83
2018-08-09T11:37:11.307Z,5.80
2018-08-09T11:39:39.398Z,6.22
2018-08-09T11:42:07.474Z,5.83
2018-08-09T11:44:35.569Z,5.17
2018-08-09T11:47:04.038Z,5.28
2018-08-09T11:49:32.179Z,5.70
2018-08-09T11:52:00.300Z,5.00
2018-08-09T11:54:28.390Z,5.10
2018-08-09T11:56:56.511Z,5.28
2018-08-09T11:59:24.589Z,5.30
2018-08-09T12:01:52.700Z,5.05
2018-08-09T12:04:20.788Z,5.62
2018-08-09T12:06:48.885Z,5.35
2018-08-09T12:09:17.030Z,5.87
2018-08-09T12:11:45.120Z,5.33
2018-08-09T12:14:13.204Z,5.12
2018-08-09T12:16:41.363Z,5.67
2018-08-09T12:19:09.506Z,5.65
2018-08-09T12:21:37.634Z,5.87
2018-08-09T12:24:10.352Z,5.45
2018-08-09T12:26:38.515Z,6.05
2018-08-09T12:29:06.609Z,6.22
2018-08-09T12:31:34.989Z,5.95
2018-08-09T12:34:03.066Z,6.03
2018-08-09T12:36:31.191Z,6.25
2018-08-09T12:38:59.318Z,6.17
2018-08-09T12:41:28.638Z,6.30
2018-08-09T12:43:56.734Z,5.83
2018-08-09T12:46:24.821Z,5.92
2018-08-09T12:48:52.923Z,5.90
2018-08-09T12:51:21.009Z,5.65
2018-08-09T12:53:49.101Z,5.15
2018-08-09T12:56:17.191Z,5.62
2018-08-09T12:58:45.290Z,5.90
2018-08-09T13:01:13.360Z,5.85
2018-08-09T13:03:41.469Z,5.90
2018-08-09T13:06:09.570Z,5.87
2018-08-09T13:08:37.659Z,5.92
2018-08-09T13:11:05.807Z,6.12
2018-08-09T13:13:34.029Z,6.10
2018-08-09T13:16:02.112Z,6.10
2018-08-09T13:18:30.256Z,6.00
2018-08-09T13:20:58.359Z,6.95
2018-08-09T13:23:26.482Z,6.90
2018-08-09T13:25:54.577Z,7.25
2018-08-09T13:28:22.646Z,6.85
2018-08-09T13:30:50.769Z,7.15
2018-08-09T13:33:18.861Z,7.00
2018-08-09T13:35:46.946Z,7.37
2018-08-09T13:38:15.014Z,6.55
2018-08-09T13:40:44.338Z,7.55
2018-08-09T13:43:12.437Z,7.22
2018-08-09T13:45:40.521Z,7.20
2018-08-09T13:48:08.611Z,7.05
2018-08-09T13:50:36.686Z,7.00
2018-08-09T13:53:04.801Z,6.67
2018-08-09T13:55:32.883Z,7.00
2018-08-09T13:58:00.962Z,6.75
2018-08-09T14:00:29.049Z,6.72
2018-08-09T14:02:57.158Z,6.62
2018-08-09T14:05:25.272Z,6.47
2018-08-09T14:07:53.363Z,6.62
2018-08-09T14:10:21.451Z,6.42
2018-08-09T14:12:49.520Z,6.60
2018-08-09T14:15:17.622Z,6.28
2018-08-09T14:17:46.724Z,6.15
2018-08-09T14:20:16.954Z,5.65
2018-08-09T14:22:45.090Z,5.90
2018-08-09T14:25:13.486Z,5.83
2018-08-09T14:27:41.594Z,5.95
2018-08-09T14:30:11.652Z,5.97
2018-08-09T14:32:39.737Z,6.22
2018-08-09T14:35:09.674Z,6.20
2018-08-09T14:37:37.796Z,6.72
2018-08-09T14:40:08.959Z,7.25
2018-08-09T14:42:37.176Z,6.97
2018-08-09T14:45:07.938Z,6.85
2018-08-09T14:47:36.035Z,6.95
2018-08-09T14:50:04.961Z,7.30
2018-08-09T14:52:33.379Z,7.20
2018-08-09T14:55:02.268Z,7.03
2018-08-09T14:57:30.347Z,7.03
2018-08-09T14:59:58.436Z,6.60
2018-08-09T15:02:26.540Z,7.03
2018-08-09T15:04:54.628Z,7.00
2018-08-09T15:07:22.762Z,6.62
2018-08-09T15:09:50.873Z,6.60
2018-08-09T15:12:18.955Z,8.07
2018-08-09T15:14:47.152Z,7.07
2018-08-09T15:17:15.236Z,6.97
2018-08-09T15:19:43.375Z,6.70
2018-08-09T15:22:11.451Z,7.07
2018-08-09T15:24:39.587Z,7.30
2018-08-09T15:27:07.683Z,6.70
2018-08-09T15:29:35.769Z,7.47
2018-08-09T15:32:03.874Z,7.50
2018-08-09T15:34:31.983Z,6.67
2018-08-09T15:37:00.091Z,7.90
2018-08-09T15:39:28.690Z,7.60
2018-08-09T15:41:56.797Z,7.40
2018-08-09T15:44:24.880Z,7.00
2018-08-09T15:46:53.022Z,7.60
2018-08-09T15:49:21.141Z,8.40
2018-08-09T15:51:49.755Z,7.63
2018-08-09T15:54:19.053Z,7.77
2018-08-09T15:56:47.213Z,7.37
2018-08-09T15:59:15.273Z,7.70
2018-08-09T16:01:43.366Z,7.33
2018-08-09T16:04:11.486Z,7.77
2018-08-09T16:06:39.593Z,7.33
2018-08-09T16:09:11.577Z,7.10
2018-08-09T16:11:39.707Z,7.63
2018-08-09T16:14:07.784Z,8.00
2018-08-09T16:16:35.871Z,7.33
2018-08-09T16:19:03.994Z,6.73
2018-08-09T16:21:32.368Z,6.10
2018-08-09T16:24:00.428Z,6.60
2018-08-09T16:26:28.557Z,6.00
2018-08-09T16:28:56.762Z,5.07
2018-08-09T16:31:24.878Z,3.80
2018-08-09T16:33:53.081Z,4.20
2018-08-09T16:36:22.070Z,3.90
2018-08-09T16:38:50.478Z,4.20
2018-08-09T16:41:18.660Z,3.87
2018-08-09T16:43:46.767Z,4.17
2018-08-09T16:46:14.845Z,3.80
2018-08-09T16:48:42.967Z,4.07
2018-08-09T16:51:11.103Z,4.30
2018-08-09T16:53:39.214Z,4.13
2018-08-09T16:56:07.296Z,4.10
2018-08-09T16:58:35.392Z,4.30
2018-08-09T17:01:03.484Z,4.50
2018-08-09T17:03:31.577Z,4.30
2018-08-09T17:05:59.715Z,4.30
2018-08-09T17:08:27.787Z,4.27
2018-08-09T17:10:55.886Z,4.07
2018-08-09T17:13:24.005Z,4.67
2018-08-09T17:15:52.083Z,4.63
2018-08-09T17:18:20.165Z,5.20
2018-08-09T17:20:48.262Z,7.17
2018-08-09T17:23:16.360Z,8.07
2018-08-09T17:25:44.416Z,5.83
2018-08-09T17:28:12.498Z,5.17
2018-08-09T17:30:40.654Z,5.23
2018-08-09T17:33:08.900Z,5.07
2018-08-09T17:35:36.986Z,5.80
2018-08-09T17:38:05.094Z,5.40
2018-08-09T17:40:34.112Z,5.47
2018-08-09T17:43:03.102Z,5.40
2018-08-09T17:45:32.694Z,5.20
2018-08-09T17:48:01.131Z,5.53
2018-08-09T17:50:29.298Z,5.70
2018-08-09T17:52:59.337Z,5.67
2018-08-09T17:55:27.627Z,9.43
2018-08-09T17:57:55.725Z,6.50
2018-08-09T18:00:25.668Z,11.23
2018-08-09T18:02:54.274Z,6.63
2018-08-09T18:05:22.403Z,6.57
2018-08-09T18:07:51.041Z,5.83
2018-08-09T18:10:22.186Z,5.43
2018-08-09T18:12:50.565Z,11.87
2018-08-09T18:15:19.302Z,6.57
2018-08-09T18:17:47.517Z,5.60
2018-08-09T18:20:18.115Z,5.73
2018-08-09T18:22:46.367Z,6.43
2018-08-09T18:25:15.178Z,11.97
2018-08-09T18:27:43.885Z,6.47
2018-08-09T18:30:14.092Z,6.30
2018-08-09T18:32:42.480Z,5.93
2018-08-09T18:35:12.687Z,6.53
2018-08-09T18:37:40.804Z,6.40
2018-08-09T18:40:11.104Z,6.57
2018-08-09T18:42:39.787Z,6.73
2018-08-09T18:45:09.070Z,6.60
2018-08-09T18:47:37.658Z,7.83
2018-08-09T18:50:11.171Z,7.27
2018-08-09T18:52:39.354Z,8.20
2018-08-09T18:55:08.106Z,8.40
2018-08-09T18:57:36.228Z,8.00
2018-08-09T19:00:07.151Z,8.43
2018-08-09T19:02:35.259Z,7.70
2018-08-09T19:05:03.340Z,7.20
2018-08-09T19:07:31.419Z,9.20
2018-08-09T19:09:59.532Z,12.10
2018-08-09T19:12:27.638Z,9.43
2018-08-09T19:14:55.782Z,8.67
2018-08-09T19:17:23.840Z,7.90
2018-08-09T19:19:51.928Z,7.90
2018-08-09T19:22:20.005Z,7.73
2018-08-09T19:24:48.095Z,7.87
2018-08-09T19:27:16.265Z,8.30
2018-08-09T19:29:44.442Z,7.93
2018-08-09T19:32:12.596Z,8.43
2018-08-09T19:34:40.693Z,8.27
2018-08-09T19:37:08.848Z,7.80
2018-08-09T19:39:36.939Z,8.67
2018-08-09T19:42:05.012Z,8.23
2018-08-09T19:44:33.093Z,8.67
2018-08-09T19:47:01.224Z,8.93
2018-08-09T19:49:29.358Z,8.33
2018-08-09T19:51:57.474Z,8.27
2018-08-09T19:54:25.673Z,8.20
2018-08-09T19:56:54.512Z,9.00
2018-08-09T19:59:22.601Z,9.87
2018-08-09T20:01:50.661Z,8.87
2018-08-09T20:04:19.346Z,9.07
2018-08-09T20:06:48.166Z,8.63
2018-08-09T20:09:16.200Z,8.97
2018-08-09T20:11:44.303Z,9.27
2018-08-09T20:14:12.398Z,9.10
2018-08-09T20:16:40.474Z,9.50
2018-08-09T20:19:08.571Z,9.73
2018-08-09T20:21:36.843Z,10.10
2018-08-09T20:24:04.950Z,10.40
2018-08-09T20:26:33.020Z,10.00
2018-08-09T20:29:01.244Z,9.93
2018-08-09T20:31:29.390Z,10.37
2018-08-09T20:33:57.564Z,11.87
2018-08-09T20:36:25.679Z,12.33
2018-08-09T20:38:53.759Z,11.00
2018-08-09T20:41:21.838Z,10.73
2018-08-09T20:43:50.121Z,11.17
2018-08-09T20:46:18.211Z,11.13
2018-08-09T20:48:46.395Z,12.23
2018-08-09T20:51:15.942Z,12.03
2018-08-09T20:53:44.016Z,11.37
2018-08-09T20:56:13.327Z,10.90
2018-08-09T20:58:41.405Z,10.80
2018-08-09T21:01:09.507Z,11.83
2018-08-09T21:03:37.589Z,12.47
2018-08-09T21:06:05.661Z,11.23
2018-08-09T21:08:33.749Z,12.90
2018-08-09T21:11:01.904Z,12.13
2018-08-09T21:13:30.208Z,12.17
2018-08-09T21:15:58.345Z,10.90
2018-08-09T21:18:26.451Z,10.07
2018-08-09T21:20:54.642Z,9.47
2018-08-09T21:23:22.831Z,9.67
2018-08-09T21:25:50.933Z,8.87
2018-08-09T21:28:19.061Z,9.07
2018-08-09T21:30:47.965Z,8.90
2018-08-09T21:33:16.249Z,8.87
2018-08-09T21:35:44.355Z,8.80
2018-08-09T21:38:12.535Z,8.03
2018-08-09T21:40:40.612Z,7.40
2018-08-09T21:43:08.765Z,6.90
2018-08-09T21:45:36.857Z,6.83
2018-08-09T21:48:04.969Z,6.57
2018-08-09T21:50:33.026Z,6.93
2018-08-09T21:53:01.170Z,6.47
2018-08-09T21:55:29.571Z,6.40
2018-08-09T21:57:57.653Z,6.73
2018-08-09T22:00:47.269Z,6.40
2018-08-09T22:03:15.486Z,6.40
2018-08-09T22:05:48.881Z,6.50
2018-08-09T22:08:22.409Z,6.53
2018-08-09T22:10:55.857Z,7.40
2018-08-09T22:13:29.646Z,6.70
2018-08-09T22:16:03.137Z,6.30
2018-08-09T22:18:36.622Z,5.73
2018-08-09T22:21:10.102Z,6.40
2018-08-09T22:23:38.272Z,6.70
2018-08-09T22:26:06.401Z,6.23
2018-08-09T22:28:35.218Z,6.60
2018-08-09T22:31:03.322Z,6.43
2018-08-09T22:33:32.218Z,6.53
2018-08-09T22:36:00.324Z,6.73
2018-08-09T22:38:28.809Z,5.90
2018-08-09T22:40:57.036Z,6.30
2018-08-09T22:43:25.135Z,6.70
2018-08-09T22:45:53.243Z,6.80
2018-08-09T22:48:21.351Z,6.23
2018-08-09T22:50:49.456Z,6.00
2018-08-09T22:53:17.974Z,6.03
2018-08-09T22:55:46.582Z,5.80
2018-08-09T22:58:14.947Z,6.00
2018-08-09T23:00:43.026Z,5.40
2018-08-09T23:03:12.297Z,5.47
2018-08-09T23:05:40.700Z,5.20
2018-08-09T23:08:10.611Z,5.00
2018-08-09T23:10:39.343Z,4.83
2018-08-09T23:13:07.891Z,4.50
2018-08-09T23:15:35.977Z,4.37
2018-08-09T23:18:04.382Z,4.10
2018-08-09T23:20:32.471Z,3.80
2018-08-09T23:23:00.598Z,4.10
2018-08-09T23:25:28.680Z,3.70
2018-08-09T23:27:56.737Z,4.00
2018-08-09T23:30:24.929Z,3.53
2018-08-09T23:32:53.026Z,3.47
2018-08-09T23:35:21.100Z,3.43
2018-08-09T23:37:49.183Z,3.80
2018-08-09T23:40:17.276Z,3.27
2018-08-09T23:42:45.371Z,3.30
2018-08-09T23:45:13.453Z,3.10
2018-08-09T23:47:41.695Z,2.83
2018-08-09T23:50:11.315Z,2.60
2018-08-09T23:52:39.993Z,2.90
2018-08-09T23:55:11.550Z,2.93
2018-08-09T23:57:39.926Z,2.90
